createdAt,value
2019-02-26T00:00:00.831Z,7.88
2019-02-26T00:02:32.568Z,7.48
2019-02-26T00:05:03.515Z,7.34
2019-02-26T00:07:33.280Z,7.03
2019-02-26T00:10:04.654Z,7.03
2019-02-26T00:12:35.662Z,7.03
2019-02-26T00:15:13.240Z,6.96
2019-02-26T00:17:45.649Z,7.10
2019-02-26T00:20:17.077Z,7.08
2019-02-26T00:22:46.081Z,7.09
2019-02-26T00:25:17.742Z,6.91
2019-02-26T00:27:49.341Z,6.85
2019-02-26T00:30:18.832Z,6.94
2019-02-26T00:32:48.848Z,7.07
2019-02-26T00:35:20.660Z,7.04
2019-02-26T00:37:51.099Z,6.97
2019-02-26T00:40:21.288Z,7.01
2019-02-26T00:42:54.358Z,7.02
2019-02-26T00:45:24.735Z,7.09
2019-02-26T00:47:55.964Z,6.89
2019-02-26T00:50:25.351Z,6.87
2019-02-26T00:52:59.290Z,6.79
2019-02-26T00:55:29.313Z,6.94
2019-02-26T00:57:59.159Z,6.91
2019-02-26T01:00:30.948Z,6.83
2019-02-26T01:03:03.551Z,6.83
2019-02-26T01:05:34.042Z,6.90
2019-02-26T01:08:06.036Z,6.70
2019-02-26T01:10:37.554Z,6.77
2019-02-26T01:13:07.330Z,6.68
2019-02-26T01:15:37.067Z,6.66
2019-02-26T01:18:07.243Z,6.58
2019-02-26T01:20:36.828Z,6.56
2019-02-26T01:23:06.495Z,6.37
2019-02-26T01:25:38.234Z,6.45
2019-02-26T01:28:09.461Z,6.45
2019-02-26T01:30:40.929Z,6.46
2019-02-26T01:33:11.008Z,6.59
2019-02-26T01:35:40.534Z,6.35
2019-02-26T01:38:12.649Z,6.39
2019-02-26T01:40:43.567Z,6.36
2019-02-26T01:43:12.911Z,6.03
2019-02-26T01:45:44.038Z,6.08
2019-02-26T01:48:16.718Z,6.25
2019-02-26T01:50:45.870Z,6.32
2019-02-26T01:53:17.526Z,6.35
2019-02-26T01:55:48.313Z,6.14
2019-02-26T01:58:18.287Z,6.21
2019-02-26T02:00:47.802Z,6.06
2019-02-26T02:03:20.813Z,5.95
2019-02-26T02:05:53.026Z,5.79
2019-02-26T02:08:24.719Z,5.84
2019-02-26T02:10:56.594Z,5.86
2019-02-26T02:13:28.282Z,5.82
2019-02-26T02:15:59.815Z,5.94
2019-02-26T02:18:29.993Z,5.96
2019-02-26T02:20:59.680Z,6.15
2019-02-26T02:23:30.347Z,6.24
2019-02-26T02:26:04.204Z,6.03
2019-02-26T02:28:33.725Z,5.56
2019-02-26T02:31:03.264Z,5.56
2019-02-26T02:33:34.939Z,5.57
2019-02-26T02:38:37.238Z,5.55
2019-02-26T02:41:07.069Z,5.69
2019-02-26T02:43:36.779Z,5.65
2019-02-26T02:46:06.561Z,5.67
2019-02-26T02:48:36.114Z,5.64
2019-02-26T02:51:07.934Z,5.59
2019-02-26T02:53:39.065Z,5.61
2019-02-26T02:56:10.581Z,5.54
2019-02-26T02:58:41.809Z,5.57
2019-02-26T03:01:14.020Z,5.61
2019-02-26T03:03:42.879Z,5.72
2019-02-26T03:06:15.888Z,5.53
2019-02-26T03:08:47.992Z,5.38
2019-02-26T03:11:17.378Z,5.36
2019-02-26T03:13:48.609Z,5.31
2019-02-26T03:16:19.457Z,5.47
2019-02-26T03:18:49.611Z,5.58
2019-02-26T03:21:21.595Z,5.66
2019-02-26T03:23:51.619Z,5.70
2019-02-26T03:26:23.533Z,5.73
2019-02-26T03:28:53.350Z,5.65
2019-02-26T03:31:29.268Z,5.59
2019-02-26T03:34:00.007Z,5.70
2019-02-26T03:36:25.929Z,5.63
2019-02-26T03:38:59.786Z,5.53
2019-02-26T03:41:29.081Z,5.58
2019-02-26T03:44:00.669Z,5.61
2019-02-26T03:46:30.835Z,5.71
2019-02-26T03:49:02.695Z,5.68
2019-02-26T03:51:31.779Z,5.51
2019-02-26T03:54:02.024Z,5.69
2019-02-26T03:56:31.633Z,5.72
2019-02-26T03:59:04.003Z,5.56
2019-02-26T04:01:32.821Z,5.35
2019-02-26T04:04:04.817Z,5.51
2019-02-26T04:06:36.043Z,5.66
2019-02-26T04:09:08.540Z,5.53
2019-02-26T04:11:40.817Z,5.46
2019-02-26T04:14:12.583Z,5.55
2019-02-26T04:16:43.623Z,5.81
2019-02-26T04:19:13.178Z,5.98
2019-02-26T04:22:29.811Z,6.06
2019-02-26T04:25:08.323Z,6.08
2019-02-26T04:28:13.885Z,5.79
2019-02-26T04:31:11.740Z,5.81
2019-02-26T04:34:05.286Z,5.69
2019-02-26T04:36:47.176Z,5.76
2019-02-26T04:39:47.507Z,5.59
2019-02-26T04:42:48.103Z,5.70
2019-02-26T04:45:44.563Z,5.46
2019-02-26T04:48:20.177Z,5.50
2019-02-26T04:50:50.331Z,5.60
2019-02-26T04:53:20.078Z,5.51
2019-02-26T04:55:49.874Z,5.56
2019-02-26T04:58:20.759Z,5.67
2019-02-26T05:00:51.048Z,5.70
2019-02-26T05:03:20.813Z,5.60
2019-02-26T05:05:53.922Z,5.76
2019-02-26T05:08:22.114Z,6.01
2019-02-26T05:10:54.237Z,5.97
2019-02-26T05:13:25.227Z,5.97
2019-02-26T05:15:54.799Z,5.95
2019-02-26T05:18:25.965Z,5.98
2019-02-26T05:20:59.196Z,5.90
2019-02-26T05:23:31.174Z,6.03
2019-02-26T05:26:05.079Z,6.14
2019-02-26T05:28:35.341Z,5.98
2019-02-26T05:31:05.905Z,5.95
2019-02-26T05:33:34.684Z,5.88
2019-02-26T05:36:06.228Z,5.75
2019-02-26T05:38:37.684Z,5.71
2019-02-26T05:41:08.106Z,5.65
2019-02-26T05:43:46.898Z,5.79
2019-02-26T05:46:15.890Z,5.79
2019-02-26T05:48:48.372Z,5.46
2019-02-26T05:51:18.079Z,5.51
2019-02-26T05:53:50.386Z,5.53
2019-02-26T05:56:20.709Z,5.48
2019-02-26T05:58:51.623Z,5.32
2019-02-26T06:01:22.555Z,5.17
2019-02-26T06:03:52.843Z,5.25
2019-02-26T06:06:22.909Z,5.22
2019-02-26T06:08:55.207Z,5.07
2019-02-26T06:11:28.352Z,5.02
2019-02-26T06:13:56.455Z,4.97
2019-02-26T06:16:28.864Z,4.93
2019-02-26T06:18:58.329Z,4.88
2019-02-26T06:21:28.868Z,4.99
2019-02-26T06:23:58.553Z,4.99
2019-02-26T06:26:32.421Z,5.09
2019-02-26T06:28:59.759Z,4.99
2019-02-26T06:31:29.423Z,4.97
2019-02-26T06:34:01.511Z,5.16
2019-02-26T06:36:30.567Z,5.41
2019-02-26T06:39:01.522Z,5.64
2019-02-26T06:41:31.635Z,5.87
2019-02-26T06:44:01.614Z,6.08
2019-02-26T06:46:35.927Z,6.34
2019-02-26T06:49:07.181Z,6.89
2019-02-26T06:51:36.972Z,7.07
2019-02-26T06:54:08.177Z,7.15
2019-02-26T06:56:43.290Z,7.37
2019-02-26T06:59:12.238Z,8.22
2019-02-26T07:01:42.194Z,8.85
2019-02-26T07:04:12.930Z,9.39
2019-02-26T07:06:42.673Z,10.07
2019-02-26T07:09:15.261Z,10.52
2019-02-26T07:11:44.014Z,10.32
2019-02-26T07:14:13.779Z,10.44
2019-02-26T07:16:43.719Z,11.00
2019-02-26T07:19:14.200Z,11.81
2019-02-26T07:21:45.595Z,12.87
2019-02-26T07:24:18.116Z,13.52
2019-02-26T07:26:48.422Z,13.76
2019-02-26T07:29:18.043Z,13.99
2019-02-26T07:31:49.590Z,14.35
2019-02-26T07:34:22.707Z,14.91
2019-02-26T07:36:52.568Z,15.83
2019-02-26T07:39:22.831Z,16.22
2019-02-26T07:42:16.377Z,16.74
2019-02-26T07:44:45.522Z,17.74
2019-02-26T07:47:17.033Z,17.89
2019-02-26T07:49:48.154Z,18.79
2019-02-26T07:52:17.988Z,19.79
2019-02-26T07:54:49.500Z,18.74
2019-02-26T07:57:20.740Z,19.11
2019-02-26T07:59:51.038Z,19.56
2019-02-26T08:02:20.765Z,19.21
2019-02-26T08:04:50.571Z,19.65
2019-02-26T08:07:21.492Z,20.03
2019-02-26T08:09:51.813Z,19.39
2019-02-26T08:12:21.644Z,19.58
2019-02-26T08:14:51.256Z,19.85
2019-02-26T08:17:21.013Z,21.10
2019-02-26T08:19:50.906Z,21.59
2019-02-26T08:22:21.001Z,22.65
2019-02-26T08:24:52.711Z,23.70
2019-02-26T08:27:22.045Z,23.91
2019-02-26T08:30:18.695Z,23.54
2019-02-26T08:32:51.144Z,24.38
2019-02-26T08:35:19.127Z,25.69
2019-02-26T08:37:49.203Z,26.19
2019-02-26T08:40:18.841Z,26.76
2019-02-26T08:42:48.574Z,26.53
2019-02-26T08:45:25.057Z,27.18
2019-02-26T08:47:54.094Z,27.51
2019-02-26T08:50:24.079Z,26.98
2019-02-26T08:52:56.212Z,27.92
2019-02-26T08:55:25.244Z,28.36
2019-02-26T08:57:56.513Z,27.94
2019-02-26T09:00:26.752Z,28.46
2019-02-26T09:03:17.967Z,29.22
2019-02-26T09:05:49.292Z,28.77
2019-02-26T09:08:19.473Z,28.58
2019-02-26T09:10:49.258Z,28.13
2019-02-26T09:13:18.919Z,28.89
2019-02-26T09:15:48.569Z,28.50
2019-02-26T09:18:20.507Z,29.52
2019-02-26T09:20:49.916Z,29.21
2019-02-26T09:23:21.168Z,30.06
2019-02-26T09:25:54.874Z,29.82
2019-02-26T09:28:25.330Z,29.70
2019-02-26T09:30:56.339Z,30.82
2019-02-26T09:33:32.687Z,31.71
2019-02-26T09:36:00.214Z,31.43
2019-02-26T09:38:29.893Z,30.14
2019-02-26T09:40:59.637Z,30.57
2019-02-26T09:43:29.449Z,30.11
2019-02-26T09:46:19.175Z,31.75
2019-02-26T09:48:50.360Z,31.93
2019-02-26T09:51:20.048Z,33.23
2019-02-26T09:53:51.980Z,33.08
2019-02-26T09:56:21.373Z,33.81
2019-02-26T09:58:51.251Z,33.65
2019-02-26T10:01:21.062Z,32.55
2019-02-26T10:03:50.833Z,33.24
2019-02-26T10:06:21.628Z,33.97
2019-02-26T10:08:56.260Z,34.63
2019-02-26T10:11:27.872Z,33.93
2019-02-26T10:13:57.440Z,33.65
2019-02-26T10:16:28.162Z,34.14
2019-02-26T10:18:58.928Z,33.38
2019-02-26T10:21:28.824Z,35.44
2019-02-26T10:23:59.906Z,36.00
2019-02-26T10:26:33.366Z,36.38
2019-02-26T10:29:04.387Z,35.88
2019-02-26T10:31:34.686Z,35.55
2019-02-26T10:34:07.865Z,36.94
2019-02-26T10:36:40.857Z,36.91
2019-02-26T10:39:10.326Z,36.02
2019-02-26T10:41:42.285Z,36.59
2019-02-26T10:44:11.725Z,36.48
2019-02-26T10:46:44.582Z,36.08
2019-02-26T10:49:14.811Z,36.49
2019-02-26T10:51:44.762Z,36.20
2019-02-26T10:54:17.869Z,36.32
2019-02-26T10:56:46.680Z,35.87
2019-02-26T10:59:19.505Z,36.16
2019-02-26T11:01:51.989Z,36.50
2019-02-26T11:04:21.251Z,36.33
2019-02-26T11:06:51.200Z,36.38
2019-02-26T11:09:25.946Z,37.51
2019-02-26T11:11:54.961Z,37.23
2019-02-26T11:14:24.669Z,37.62
2019-02-26T11:16:54.802Z,38.26
2019-02-26T11:19:27.247Z,38.92
2019-02-26T11:21:58.702Z,38.28
2019-02-26T11:24:31.450Z,38.35
2019-02-26T11:27:00.899Z,37.88
2019-02-26T11:29:33.057Z,38.82
2019-02-26T11:32:04.636Z,37.62
2019-02-26T11:34:36.244Z,36.91
2019-02-26T11:37:08.800Z,36.09
2019-02-26T11:39:40.127Z,36.77
2019-02-26T11:42:11.270Z,36.33
2019-02-26T11:44:41.246Z,35.75
2019-02-26T11:47:13.716Z,37.08
2019-02-26T11:49:44.228Z,37.51
2019-02-26T11:52:14.617Z,37.90
2019-02-26T11:54:47.886Z,37.92
2019-02-26T11:57:17.978Z,38.22
2019-02-26T11:59:47.791Z,37.98
2019-02-26T12:02:25.208Z,37.15
2019-02-26T12:04:49.268Z,37.50
2019-02-26T12:07:19.240Z,38.09
2019-02-26T12:09:49.870Z,38.37
2019-02-26T12:12:19.930Z,38.00
2019-02-26T12:14:49.851Z,38.97
2019-02-26T12:17:19.773Z,37.49
2019-02-26T12:19:51.486Z,38.70
2019-02-26T12:22:22.676Z,38.30
2019-02-26T12:27:24.919Z,38.27
2019-02-26T12:29:54.844Z,36.89
2019-02-26T12:32:26.911Z,37.98
2019-02-26T12:34:56.536Z,38.14
2019-02-26T12:37:26.413Z,37.73
2019-02-26T12:39:57.871Z,37.12
2019-02-26T12:42:27.987Z,36.85
2019-02-26T12:45:01.395Z,37.34
2019-02-26T12:47:29.712Z,37.51
2019-02-26T12:50:05.195Z,35.99
2019-02-26T12:52:34.451Z,37.08
2019-02-26T12:55:08.149Z,36.70
2019-02-26T12:57:37.163Z,37.24
2019-02-26T13:00:16.574Z,35.88
2019-02-26T13:02:49.475Z,35.75
2019-02-26T13:05:19.678Z,36.55
2019-02-26T13:07:51.845Z,38.12
2019-02-26T13:10:27.203Z,37.46
2019-02-26T13:13:00.166Z,37.57
2019-02-26T13:15:28.920Z,37.04
2019-02-26T13:17:58.982Z,36.11
2019-02-26T13:20:30.414Z,36.73
2019-02-26T13:23:16.218Z,36.45
2019-02-26T13:25:32.013Z,35.73
2019-02-26T13:28:03.454Z,35.71
2019-02-26T13:30:33.317Z,36.14
2019-02-26T13:33:05.359Z,36.58
2019-02-26T13:35:34.637Z,36.35
2019-02-26T13:38:05.729Z,35.91
2019-02-26T13:40:38.445Z,34.35
2019-02-26T13:43:09.003Z,34.40
2019-02-26T13:45:38.908Z,35.26
2019-02-26T13:48:08.761Z,34.92
2019-02-26T13:50:39.679Z,34.41
2019-02-26T13:53:10.650Z,33.56
2019-02-26T13:55:40.534Z,33.23
2019-02-26T13:58:11.888Z,33.71
2019-02-26T14:00:42.786Z,33.79
2019-02-26T14:03:12.478Z,34.13
2019-02-26T14:05:43.270Z,33.82
2019-02-26T14:08:13.097Z,33.88
2019-02-26T14:10:43.073Z,32.85
2019-02-26T14:13:12.996Z,31.72
2019-02-26T14:15:43.001Z,31.78
2019-02-26T14:18:12.873Z,31.89
2019-02-26T14:20:42.634Z,32.11
2019-02-26T14:23:12.517Z,32.51
2019-02-26T14:25:42.516Z,32.37
2019-02-26T14:28:13.871Z,32.09
2019-02-26T14:30:43.880Z,31.09
2019-02-26T14:33:13.671Z,30.56
2019-02-26T14:35:43.712Z,31.26
2019-02-26T14:38:13.489Z,31.61
2019-02-26T14:40:43.326Z,31.09
2019-02-26T14:43:13.118Z,30.86
2019-02-26T14:45:44.655Z,31.58
2019-02-26T14:48:14.482Z,31.15
2019-02-26T14:50:46.172Z,30.90
2019-02-26T14:53:15.959Z,31.11
2019-02-26T14:55:45.828Z,30.76
2019-02-26T14:58:15.706Z,30.79
2019-02-26T15:00:45.463Z,30.28
2019-02-26T15:03:15.184Z,30.41
2019-02-26T15:05:45.089Z,30.52
2019-02-26T15:08:14.987Z,29.46
2019-02-26T15:10:44.902Z,29.40
2019-02-26T15:13:15.346Z,29.35
2019-02-26T15:15:45.141Z,28.65
2019-02-26T15:18:14.980Z,28.61
2019-02-26T15:20:46.270Z,28.16
2019-02-26T15:23:16.035Z,27.41
2019-02-26T15:25:45.845Z,27.30
2019-02-26T15:28:16.077Z,27.19
2019-02-26T15:30:45.907Z,26.51
2019-02-26T15:33:15.785Z,27.20
2019-02-26T15:35:48.362Z,27.53
2019-02-26T15:38:18.272Z,26.93
2019-02-26T15:40:48.192Z,26.31
2019-02-26T15:43:18.812Z,26.49
2019-02-26T15:45:51.957Z,26.50
2019-02-26T15:48:20.655Z,26.37
2019-02-26T15:50:50.561Z,26.08
2019-02-26T15:53:23.344Z,24.61
2019-02-26T15:55:59.140Z,24.03
2019-02-26T15:58:27.330Z,22.86
2019-02-26T16:00:57.546Z,22.03
2019-02-26T16:03:29.282Z,21.26
2019-02-26T16:05:58.928Z,21.10
2019-02-26T16:08:34.611Z,20.95
2019-02-26T16:11:00.895Z,20.43
2019-02-26T16:13:30.658Z,20.28
2019-02-26T16:16:00.839Z,20.04
2019-02-26T16:18:30.524Z,19.74
2019-02-26T16:21:00.454Z,19.52
2019-02-26T16:23:30.387Z,19.31
2019-02-26T16:26:00.718Z,19.35
2019-02-26T16:28:30.717Z,19.29
2019-02-26T16:31:00.573Z,19.22
2019-02-26T16:33:30.541Z,19.22
2019-02-26T16:36:00.800Z,19.17
2019-02-26T16:38:35.234Z,19.05
2019-02-26T16:41:05.606Z,18.70
2019-02-26T16:43:35.461Z,18.55
2019-02-26T16:46:08.289Z,18.32
2019-02-26T16:48:36.959Z,18.16
2019-02-26T16:51:06.734Z,18.17
2019-02-26T16:53:36.710Z,18.07
2019-02-26T16:56:07.889Z,17.89
2019-02-26T16:58:37.748Z,17.63
2019-02-26T17:01:07.883Z,17.55
2019-02-26T17:03:37.908Z,17.53
2019-02-26T17:06:07.704Z,17.48
2019-02-26T17:08:37.562Z,17.21
2019-02-26T17:11:13.304Z,17.06
2019-02-26T17:13:43.421Z,16.83
2019-02-26T17:16:14.473Z,16.84
2019-02-26T17:18:44.375Z,16.64
2019-02-26T17:21:14.759Z,16.53
2019-02-26T17:23:44.792Z,16.52
2019-02-26T17:26:16.120Z,16.59
2019-02-26T17:28:45.969Z,16.59
2019-02-26T17:31:17.372Z,16.52
2019-02-26T17:33:47.879Z,16.54
2019-02-26T17:36:17.645Z,16.52
2019-02-26T17:38:51.492Z,16.39
2019-02-26T17:41:19.602Z,16.40
2019-02-26T17:43:49.287Z,16.25
2019-02-26T17:46:20.666Z,16.23
2019-02-26T17:48:50.383Z,16.07
2019-02-26T17:51:20.520Z,16.06
2019-02-26T17:53:52.079Z,15.92
2019-02-26T17:56:21.860Z,15.78
2019-02-26T17:58:51.703Z,15.74
2019-02-26T18:01:24.686Z,15.56
2019-02-26T18:03:54.367Z,15.51
2019-02-26T18:06:24.119Z,15.40
2019-02-26T18:08:56.466Z,15.48
2019-02-26T18:11:26.911Z,15.46
2019-02-26T18:13:57.796Z,15.30
2019-02-26T18:16:28.650Z,15.19
2019-02-26T18:18:59.569Z,15.29
2019-02-26T18:21:30.182Z,15.25
2019-02-26T18:24:00.635Z,15.12
2019-02-26T18:26:30.481Z,15.32
2019-02-26T18:29:00.302Z,15.04
2019-02-26T18:31:34.044Z,14.92
2019-02-26T18:34:05.687Z,14.92
2019-02-26T18:36:38.211Z,14.54
2019-02-26T18:39:10.448Z,14.66
2019-02-26T18:41:40.444Z,14.71
2019-02-26T18:44:10.267Z,14.63
2019-02-26T18:46:41.256Z,14.61
2019-02-26T18:49:11.174Z,14.38
2019-02-26T18:51:41.053Z,14.13
2019-02-26T18:54:10.939Z,14.08
2019-02-26T18:56:40.855Z,13.88
2019-02-26T18:59:10.856Z,13.73
2019-02-26T19:01:40.722Z,13.65
2019-02-26T19:04:10.496Z,13.59
2019-02-26T19:06:41.918Z,13.74
2019-02-26T19:09:12.321Z,13.55
2019-02-26T19:11:43.653Z,13.47
2019-02-26T19:14:14.142Z,13.75
2019-02-26T19:16:44.099Z,13.44
2019-02-26T19:19:13.831Z,13.18
2019-02-26T19:21:43.618Z,13.19
2019-02-26T19:24:15.474Z,13.19
2019-02-26T19:26:46.647Z,13.09
2019-02-26T19:29:17.026Z,13.17
2019-02-26T19:31:46.717Z,13.10
2019-02-26T19:34:16.640Z,12.97
2019-02-26T19:36:46.505Z,12.92
2019-02-26T19:39:20.186Z,12.80
2019-02-26T19:41:50.111Z,12.69
2019-02-26T19:44:19.975Z,12.17
2019-02-26T19:46:50.171Z,12.27
2019-02-26T19:49:21.600Z,12.09
2019-02-26T19:51:51.598Z,12.33
2019-02-26T19:54:22.831Z,12.25
2019-02-26T19:56:54.690Z,12.43
2019-02-26T19:59:26.937Z,12.31
2019-02-26T20:01:59.050Z,12.00
2019-02-26T20:04:31.591Z,11.95
2019-02-26T20:07:00.837Z,11.60
2019-02-26T20:09:31.251Z,11.18
2019-02-26T20:12:11.483Z,10.84
2019-02-26T20:14:41.132Z,11.31
2019-02-26T20:17:14.797Z,11.23
2019-02-26T20:19:44.030Z,11.20
2019-02-26T20:22:13.967Z,11.14
2019-02-26T20:24:43.899Z,11.07
2019-02-26T20:27:21.594Z,10.95
2019-02-26T20:29:49.809Z,10.77
2019-02-26T20:32:19.804Z,10.79
2019-02-26T20:34:49.555Z,10.83
2019-02-26T20:37:19.250Z,10.78
2019-02-26T20:39:48.995Z,10.53
2019-02-26T20:42:18.984Z,10.49
2019-02-26T20:44:48.652Z,10.47
2019-02-26T20:47:18.463Z,10.22
2019-02-26T20:49:48.268Z,10.17
2019-02-26T20:52:17.824Z,10.15
2019-02-26T20:54:48.155Z,10.00
2019-02-26T20:57:18.346Z,10.00
2019-02-26T20:59:51.712Z,9.84
2019-02-26T21:02:19.847Z,9.71
2019-02-26T21:07:25.683Z,9.73
2019-02-26T21:10:03.447Z,9.75
2019-02-26T21:12:28.786Z,9.78
2019-02-26T21:14:58.114Z,9.69
2019-02-26T21:17:27.773Z,9.63
2019-02-26T21:19:57.694Z,9.57
2019-02-26T21:22:27.427Z,9.55
2019-02-26T21:24:58.767Z,9.46
2019-02-26T21:27:29.823Z,9.54
2019-02-26T21:29:59.671Z,9.50
2019-02-26T21:32:29.514Z,9.22
2019-02-26T21:34:59.138Z,9.27
2019-02-26T21:37:32.631Z,9.46
2019-02-26T21:40:01.650Z,9.28
2019-02-26T21:42:31.431Z,9.27
2019-02-26T21:45:01.139Z,9.31
2019-02-26T21:47:30.845Z,9.14
2019-02-26T21:50:00.608Z,9.12
2019-02-26T21:52:30.369Z,9.03
2019-02-26T21:55:01.907Z,8.78
2019-02-26T21:57:31.742Z,8.76
2019-02-26T22:00:05.166Z,8.74
2019-02-26T22:02:33.044Z,8.66
2019-02-26T22:05:04.999Z,8.39
2019-02-26T22:07:34.374Z,8.07
2019-02-26T22:10:07.905Z,8.04
2019-02-26T22:12:37.814Z,8.09
2019-02-26T22:15:11.547Z,8.08
2019-02-26T22:17:43.928Z,8.08
2019-02-26T22:20:22.069Z,7.85
2019-02-26T22:22:48.061Z,7.72
2019-02-26T22:25:18.512Z,7.62
2019-02-26T22:27:48.412Z,7.58
2019-02-26T22:30:22.030Z,7.49
2019-02-26T22:32:52.641Z,7.30
2019-02-26T22:35:25.636Z,7.32
2019-02-26T22:37:53.802Z,7.16
2019-02-26T22:40:23.408Z,6.99
2019-02-26T22:42:53.117Z,6.96
2019-02-26T22:45:22.901Z,6.77
2019-02-26T22:47:53.109Z,6.68
2019-02-26T22:50:24.844Z,6.84
2019-02-26T22:52:54.094Z,6.75
2019-02-26T22:55:24.362Z,6.80
2019-02-26T22:57:53.976Z,6.72
2019-02-26T23:00:51.453Z,6.56
2019-02-26T23:03:21.291Z,6.51
2019-02-26T23:05:50.988Z,6.34
2019-02-26T23:08:21.118Z,6.30
2019-02-26T23:10:51.465Z,6.27
2019-02-26T23:13:21.664Z,6.24
2019-02-26T23:15:52.659Z,6.00
2019-02-26T23:18:22.855Z,6.05
2019-02-26T23:20:52.647Z,6.11
2019-02-26T23:23:23.021Z,6.05
2019-02-26T23:25:52.729Z,5.95
2019-02-26T23:28:23.289Z,5.95
2019-02-26T23:30:54.837Z,5.93
2019-02-26T23:33:24.456Z,5.92
2019-02-26T23:35:55.145Z,6.09
2019-02-26T23:38:25.523Z,5.96
2019-02-26T23:40:55.375Z,5.99
2019-02-26T23:43:25.121Z,5.83
2019-02-26T23:45:57.093Z,5.70
2019-02-26T23:48:27.903Z,5.84
2019-02-26T23:50:57.517Z,5.72
2019-02-26T23:53:33.820Z,5.89
2019-02-26T23:56:00.774Z,5.78
2019-02-26T23:58:31.200Z,5.89
